sensor_id;sensor_type;location;lat;lon;timestamp;P1;durP1;ratioP1;P2;durP2;ratioP2
54157;SDS011;40065;49.894;10.358;2023-01-15T00:03:01;1.00;;;0.40;;
54157;SDS011;40065;49.894;10.358;2023-01-15T00:08:02;1.25;;;0.40;;
54157;SDS011;40065;49.894;10.358;2023-01-15T00:13:04;0.80;;;0.40;;
54157;SDS011;40065;49.894;10.358;2023-01-15T00:18:06;0.70;;;0.40;;
54157;SDS011;40065;49.894;10.358;2023-01-15T00:23:08;1.08;;;0.32;;
54157;SDS011;40065;49.894;10.358;2023-01-15T00:28:29;1.23;;;0.40;;
54157;SDS011;40065;49.894;10.358;2023-01-15T00:33:31;0.60;;;0.30;;
54157;SDS011;40065;49.894;10.358;2023-01-15T00:38:33;1.15;;;0.30;;
54157;SDS011;40065;49.894;10.358;2023-01-15T00:43:35;2.03;;;0.43;;
54157;SDS011;40065;49.894;10.358;2023-01-15T00:48:36;0.82;;;0.32;;
54157;SDS011;40065;49.894;10.358;2023-01-15T00:53:39;0.75;;;0.30;;
54157;SDS011;40065;49.894;10.358;2023-01-15T00:58:41;1.48;;;0.22;;
54157;SDS011;40065;49.894;10.358;2023-01-15T01:03:43;1.58;;;0.30;;
54157;SDS011;40065;49.894;10.358;2023-01-15T01:08:49;0.73;;;0.40;;
54157;SDS011;40065;49.894;10.358;2023-01-15T01:13:51;0.85;;;0.20;;
54157;SDS011;40065;49.894;10.358;2023-01-15T01:18:54;0.67;;;0.30;;
54157;SDS011;40065;49.894;10.358;2023-01-15T01:23:58;0.73;;;0.30;;
54157;SDS011;40065;49.894;10.358;2023-01-15T01:29:00;0.47;;;0.20;;
54157;SDS011;40065;49.894;10.358;2023-01-15T01:34:02;0.50;;;0.22;;
54157;SDS011;40065;49.894;10.358;2023-01-15T01:39:04;0.45;;;0.22;;
54157;SDS011;40065;49.894;10.358;2023-01-15T01:44:56;0.60;;;0.20;;
54157;SDS011;40065;49.894;10.358;2023-01-15T01:49:35;0.68;;;0.22;;
54157;SDS011;40065;49.894;10.358;2023-01-15T01:54:41;1.58;;;0.30;;
54157;SDS011;40065;49.894;10.358;2023-01-15T01:59:47;1.15;;;0.20;;
54157;SDS011;40065;49.894;10.358;2023-01-15T02:04:50;1.83;;;0.28;;
54157;SDS011;40065;49.894;10.358;2023-01-15T02:09:52;0.55;;;0.30;;
54157;SDS011;40065;49.894;10.358;2023-01-15T02:14:59;1.35;;;0.30;;
54157;SDS011;40065;49.894;10.358;2023-01-15T02:20:15;1.95;;;0.30;;
54157;SDS011;40065;49.894;10.358;2023-01-15T02:25:32;1.05;;;0.30;;
54157;SDS011;40065;49.894;10.358;2023-01-15T02:30:43;1.85;;;0.30;;
54157;SDS011;40065;49.894;10.358;2023-01-15T02:35:51;0.50;;;0.28;;
54157;SDS011;40065;49.894;10.358;2023-01-15T02:41:04;1.05;;;0.40;;
54157;SDS011;40065;49.894;10.358;2023-01-15T02:46:17;1.48;;;0.30;;
54157;SDS011;40065;49.894;10.358;2023-01-15T02:51:24;1.20;;;0.40;;
54157;SDS011;40065;49.894;10.358;2023-01-15T02:56:29;0.30;;;0.30;;
54157;SDS011;40065;49.894;10.358;2023-01-15T03:01:35;0.80;;;0.40;;
54157;SDS011;40065;49.894;10.358;2023-01-15T03:06:43;0.90;;;0.40;;
54157;SDS011;40065;49.894;10.358;2023-01-15T03:11:58;1.90;;;0.40;;
54157;SDS011;40065;49.894;10.358;2023-01-15T03:17:13;1.42;;;0.43;;
54157;SDS011;40065;49.894;10.358;2023-01-15T03:22:28;1.85;;;0.50;;
54157;SDS011;40065;49.894;10.358;2023-01-15T03:27:33;0.93;;;0.30;;
54157;SDS011;40065;49.894;10.358;2023-01-15T03:32:35;0.93;;;0.52;;
54157;SDS011;40065;49.894;10.358;2023-01-15T03:37:38;0.87;;;0.40;;
54157;SDS011;40065;49.894;10.358;2023-01-15T03:42:49;1.03;;;0.47;;
54157;SDS011;40065;49.894;10.358;2023-01-15T03:48:24;1.50;;;0.65;;
54157;SDS011;40065;49.894;10.358;2023-01-15T03:59:10;0.57;;;0.43;;
54157;SDS011;40065;49.894;10.358;2023-01-15T04:04:26;2.70;;;0.60;;
54157;SDS011;40065;49.894;10.358;2023-01-15T04:09:29;2.10;;;0.60;;
54157;SDS011;40065;49.894;10.358;2023-01-15T04:14:32;3.13;;;0.70;;
54157;SDS011;40065;49.894;10.358;2023-01-15T04:19:40;3.05;;;0.90;;
54157;SDS011;40065;49.894;10.358;2023-01-15T04:24:44;2.35;;;0.50;;
54157;SDS011;40065;49.894;10.358;2023-01-15T04:29:46;1.13;;;0.60;;
54157;SDS011;40065;49.894;10.358;2023-01-15T04:34:48;1.60;;;0.80;;
54157;SDS011;40065;49.894;10.358;2023-01-15T04:39:50;1.42;;;0.55;;
54157;SDS011;40065;49.894;10.358;2023-01-15T04:44:51;0.55;;;0.20;;
54157;SDS011;40065;49.894;10.358;2023-01-15T04:49:53;0.25;;;0.20;;
54157;SDS011;40065;49.894;10.358;2023-01-15T04:54:55;4.43;;;0.38;;
54157;SDS011;40065;49.894;10.358;2023-01-15T04:59:57;0.10;;;0.10;;
54157;SDS011;40065;49.894;10.358;2023-01-15T05:04:58;0.30;;;0.20;;
54157;SDS011;40065;49.894;10.358;2023-01-15T05:10:00;1.40;;;0.30;;
54157;SDS011;40065;49.894;10.358;2023-01-15T05:15:02;2.63;;;0.40;;
54157;SDS011;40065;49.894;10.358;2023-01-15T05:20:04;0.22;;;0.20;;
54157;SDS011;40065;49.894;10.358;2023-01-15T05:25:06;0.50;;;0.30;;
54157;SDS011;40065;49.894;10.358;2023-01-15T05:30:08;0.93;;;0.43;;
54157;SDS011;40065;49.894;10.358;2023-01-15T05:35:11;1.75;;;0.30;;
54157;SDS011;40065;49.894;10.358;2023-01-15T05:40:12;0.20;;;0.20;;
54157;SDS011;40065;49.894;10.358;2023-01-15T05:45:17;0.38;;;0.20;;
54157;SDS011;40065;49.894;10.358;2023-01-15T05:50:19;1.38;;;0.30;;
54157;SDS011;40065;49.894;10.358;2023-01-15T05:55:20;0.40;;;0.20;;
54157;SDS011;40065;49.894;10.358;2023-01-15T06:00:22;0.30;;;0.20;;
54157;SDS011;40065;49.894;10.358;2023-01-15T06:05:26;0.63;;;0.20;;
54157;SDS011;40065;49.894;10.358;2023-01-15T06:10:27;0.20;;;0.20;;
54157;SDS011;40065;49.894;10.358;2023-01-15T06:15:29;0.40;;;0.20;;
54157;SDS011;40065;49.894;10.358;2023-01-15T06:20:31;0.38;;;0.20;;
54157;SDS011;40065;49.894;10.358;2023-01-15T06:25:35;0.20;;;0.20;;
54157;SDS011;40065;49.894;10.358;2023-01-15T06:30:38;2.53;;;0.68;;
54157;SDS011;40065;49.894;10.358;2023-01-15T06:35:39;0.85;;;0.20;;
54157;SDS011;40065;49.894;10.358;2023-01-15T06:40:41;0.30;;;0.20;;
54157;SDS011;40065;49.894;10.358;2023-01-15T06:45:43;0.10;;;0.10;;
54157;SDS011;40065;49.894;10.358;2023-01-15T06:51:04;0.65;;;0.28;;
54157;SDS011;40065;49.894;10.358;2023-01-15T06:56:05;0.30;;;0.20;;
54157;SDS011;40065;49.894;10.358;2023-01-15T07:01:11;0.93;;;0.52;;
54157;SDS011;40065;49.894;10.358;2023-01-15T07:06:15;1.77;;;0.98;;
54157;SDS011;40065;49.894;10.358;2023-01-15T07:11:16;2.13;;;0.95;;
54157;SDS011;40065;49.894;10.358;2023-01-15T07:16:18;0.90;;;0.30;;
54157;SDS011;40065;49.894;10.358;2023-01-15T07:21:29;2.15;;;0.70;;
54157;SDS011;40065;49.894;10.358;2023-01-15T07:26:31;0.82;;;0.40;;
54157;SDS011;40065;49.894;10.358;2023-01-15T07:31:33;0.57;;;0.30;;
54157;SDS011;40065;49.894;10.358;2023-01-15T07:36:35;1.55;;;0.40;;
54157;SDS011;40065;49.894;10.358;2023-01-15T07:41:37;1.38;;;0.55;;
54157;SDS011;40065;49.894;10.358;2023-01-15T07:46:58;2.10;;;0.73;;
54157;SDS011;40065;49.894;10.358;2023-01-15T07:52:19;2.08;;;0.60;;
54157;SDS011;40065;49.894;10.358;2023-01-15T07:57:22;1.10;;;0.70;;
54157;SDS011;40065;49.894;10.358;2023-01-15T08:02:24;1.95;;;0.73;;
54157;SDS011;40065;49.894;10.358;2023-01-15T08:07:27;1.38;;;0.90;;
54157;SDS011;40065;49.894;10.358;2023-01-15T08:12:29;1.42;;;0.70;;
54157;SDS011;40065;49.894;10.358;2023-01-15T08:17:49;2.40;;;0.80;;
54157;SDS011;40065;49.894;10.358;2023-01-15T08:22:52;3.03;;;1.10;;
54157;SDS011;40065;49.894;10.358;2023-01-15T08:27:54;1.60;;;0.50;;
54157;SDS011;40065;49.894;10.358;2023-01-15T08:32:59;1.40;;;0.68;;
54157;SDS011;40065;49.894;10.358;2023-01-15T08:38:05;4.10;;;1.95;;
54157;SDS011;40065;49.894;10.358;2023-01-15T08:43:07;1.90;;;0.90;;
54157;SDS011;40065;49.894;10.358;2023-01-15T08:48:09;2.10;;;0.90;;
54157;SDS011;40065;49.894;10.358;2023-01-15T08:53:11;1.77;;;0.80;;
54157;SDS011;40065;49.894;10.358;2023-01-15T08:58:13;1.75;;;0.75;;
54157;SDS011;40065;49.894;10.358;2023-01-15T09:03:16;1.33;;;0.68;;
54157;SDS011;40065;49.894;10.358;2023-01-15T09:08:17;4.30;;;1.70;;
54157;SDS011;40065;49.894;10.358;2023-01-15T09:13:20;1.33;;;0.80;;
54157;SDS011;40065;49.894;10.358;2023-01-15T09:18:22;1.52;;;0.90;;
54157;SDS011;40065;49.894;10.358;2023-01-15T09:23:24;1.20;;;0.70;;
54157;SDS011;40065;49.894;10.358;2023-01-15T09:28:26;2.38;;;0.90;;
54157;SDS011;40065;49.894;10.358;2023-01-15T09:33:29;1.40;;;0.70;;
54157;SDS011;40065;49.894;10.358;2023-01-15T09:38:30;0.95;;;0.50;;
54157;SDS011;40065;49.894;10.358;2023-01-15T09:43:38;1.20;;;0.60;;
54157;SDS011;40065;49.894;10.358;2023-01-15T09:49:05;1.42;;;0.70;;
54157;SDS011;40065;49.894;10.358;2023-01-15T09:54:26;0.52;;;0.40;;
54157;SDS011;40065;49.894;10.358;2023-01-15T09:59:35;0.95;;;0.45;;
54157;SDS011;40065;49.894;10.358;2023-01-15T10:04:41;1.20;;;0.60;;
54157;SDS011;40065;49.894;10.358;2023-01-15T10:09:46;2.05;;;1.23;;
54157;SDS011;40065;49.894;10.358;2023-01-15T10:20:01;1.45;;;0.90;;
54157;SDS011;40065;49.894;10.358;2023-01-15T10:25:04;2.17;;;1.30;;
54157;SDS011;40065;49.894;10.358;2023-01-15T10:30:23;1.90;;;1.10;;
54157;SDS011;40065;49.894;10.358;2023-01-15T10:35:58;2.20;;;1.38;;
54157;SDS011;40065;49.894;10.358;2023-01-15T10:41:26;2.47;;;1.55;;
54157;SDS011;40065;49.894;10.358;2023-01-15T10:46:31;2.92;;;1.20;;
54157;SDS011;40065;49.894;10.358;2023-01-15T10:57:12;1.27;;;0.75;;
54157;SDS011;40065;49.894;10.358;2023-01-15T11:02:32;0.90;;;0.60;;
54157;SDS011;40065;49.894;10.358;2023-01-15T11:07:40;1.67;;;0.82;;
54157;SDS011;40065;49.894;10.358;2023-01-15T11:13:21;1.13;;;0.80;;
54157;SDS011;40065;49.894;10.358;2023-01-15T11:18:43;1.30;;;0.50;;
54157;SDS011;40065;49.894;10.358;2023-01-15T11:24:11;1.10;;;0.63;;
54157;SDS011;40065;49.894;10.358;2023-01-15T11:29:30;1.00;;;0.50;;
54157;SDS011;40065;49.894;10.358;2023-01-15T11:34:37;1.38;;;0.60;;
54157;SDS011;40065;49.894;10.358;2023-01-15T11:39:40;1.88;;;0.93;;
54157;SDS011;40065;49.894;10.358;2023-01-15T11:44:54;1.48;;;0.80;;
54157;SDS011;40065;49.894;10.358;2023-01-15T11:50:16;1.25;;;0.85;;
54157;SDS011;40065;49.894;10.358;2023-01-15T11:55:38;1.60;;;1.00;;
54157;SDS011;40065;49.894;10.358;2023-01-15T12:00:41;2.63;;;0.70;;
54157;SDS011;40065;49.894;10.358;2023-01-15T12:05:59;2.65;;;1.42;;
54157;SDS011;40065;49.894;10.358;2023-01-15T12:11:10;2.72;;;1.55;;
54157;SDS011;40065;49.894;10.358;2023-01-15T12:27:32;6.05;;;2.85;;
54157;SDS011;40065;49.894;10.358;2023-01-15T12:32:51;3.17;;;1.52;;
54157;SDS011;40065;49.894;10.358;2023-01-15T12:43:20;1.70;;;0.90;;
54157;SDS011;40065;49.894;10.358;2023-01-15T12:48:49;1.65;;;0.75;;
54157;SDS011;40065;49.894;10.358;2023-01-15T12:53:59;0.90;;;0.50;;
54157;SDS011;40065;49.894;10.358;2023-01-15T12:59:18;1.10;;;0.40;;
54157;SDS011;40065;49.894;10.358;2023-01-15T13:10:16;2.67;;;0.90;;
54157;SDS011;40065;49.894;10.358;2023-01-15T13:15:24;1.83;;;0.80;;
54157;SDS011;40065;49.894;10.358;2023-01-15T13:25:53;1.58;;;0.40;;
54157;SDS011;40065;49.894;10.358;2023-01-15T13:36:36;1.50;;;0.50;;
54157;SDS011;40065;49.894;10.358;2023-01-15T13:41:41;5.68;;;1.15;;
54157;SDS011;40065;49.894;10.358;2023-01-15T13:47:03;2.55;;;0.60;;
54157;SDS011;40065;49.894;10.358;2023-01-15T13:52:26;1.70;;;0.82;;
54157;SDS011;40065;49.894;10.358;2023-01-15T13:57:36;4.63;;;1.90;;
54157;SDS011;40065;49.894;10.358;2023-01-15T14:02:49;3.88;;;1.15;;
54157;SDS011;40065;49.894;10.358;2023-01-15T14:07:57;2.22;;;1.00;;
54157;SDS011;40065;49.894;10.358;2023-01-15T14:13:20;2.85;;;1.20;;
54157;SDS011;40065;49.894;10.358;2023-01-15T14:18:36;2.53;;;1.00;;
54157;SDS011;40065;49.894;10.358;2023-01-15T14:34:22;2.53;;;0.93;;
54157;SDS011;40065;49.894;10.358;2023-01-15T14:45:00;2.17;;;0.95;;
54157;SDS011;40065;49.894;10.358;2023-01-15T14:50:28;3.60;;;1.60;;
54157;SDS011;40065;49.894;10.358;2023-01-15T14:55:35;1.98;;;0.82;;
54157;SDS011;40065;49.894;10.358;2023-01-15T15:00:41;1.25;;;0.40;;
54157;SDS011;40065;49.894;10.358;2023-01-15T15:05:46;0.90;;;0.50;;
54157;SDS011;40065;49.894;10.358;2023-01-15T15:10:52;0.82;;;0.40;;
54157;SDS011;40065;49.894;10.358;2023-01-15T15:16:10;0.88;;;0.40;;
54157;SDS011;40065;49.894;10.358;2023-01-15T15:21:21;1.85;;;0.50;;
54157;SDS011;40065;49.894;10.358;2023-01-15T15:26:29;2.88;;;0.50;;
54157;SDS011;40065;49.894;10.358;2023-01-15T15:31:36;2.42;;;0.60;;
54157;SDS011;40065;49.894;10.358;2023-01-15T15:36:44;2.95;;;0.60;;
54157;SDS011;40065;49.894;10.358;2023-01-15T15:41:47;4.32;;;0.93;;
54157;SDS011;40065;49.894;10.358;2023-01-15T15:47:24;1.15;;;0.57;;
54157;SDS011;40065;49.894;10.358;2023-01-15T15:52:47;3.45;;;0.80;;
54157;SDS011;40065;49.894;10.358;2023-01-15T15:57:54;4.53;;;1.20;;
54157;SDS011;40065;49.894;10.358;2023-01-15T16:03:02;5.15;;;1.33;;
54157;SDS011;40065;49.894;10.358;2023-01-15T16:08:15;4.72;;;1.48;;
54157;SDS011;40065;49.894;10.358;2023-01-15T16:13:22;3.40;;;1.60;;
54157;SDS011;40065;49.894;10.358;2023-01-15T16:18:37;3.70;;;1.08;;
54157;SDS011;40065;49.894;10.358;2023-01-15T16:24:01;3.83;;;1.30;;
54157;SDS011;40065;49.894;10.358;2023-01-15T16:29:05;4.28;;;1.20;;
54157;SDS011;40065;49.894;10.358;2023-01-15T16:34:23;5.75;;;1.10;;
54157;SDS011;40065;49.894;10.358;2023-01-15T16:39:29;3.17;;;1.20;;
54157;SDS011;40065;49.894;10.358;2023-01-15T16:44:49;5.03;;;1.50;;
54157;SDS011;40065;49.894;10.358;2023-01-15T16:50:19;4.57;;;1.95;;
54157;SDS011;40065;49.894;10.358;2023-01-15T16:55:35;3.17;;;1.27;;
54157;SDS011;40065;49.894;10.358;2023-01-15T17:00:44;5.30;;;1.38;;
54157;SDS011;40065;49.894;10.358;2023-01-15T17:05:50;4.05;;;1.52;;
54157;SDS011;40065;49.894;10.358;2023-01-15T17:10:56;6.75;;;1.92;;
54157;SDS011;40065;49.894;10.358;2023-01-15T17:21:13;2.80;;;1.38;;
54157;SDS011;40065;49.894;10.358;2023-01-15T17:26:19;5.95;;;1.27;;
54157;SDS011;40065;49.894;10.358;2023-01-15T17:31:25;5.45;;;1.38;;
54157;SDS011;40065;49.894;10.358;2023-01-15T17:36:31;2.15;;;0.95;;
54157;SDS011;40065;49.894;10.358;2023-01-15T17:41:34;3.30;;;0.95;;
54157;SDS011;40065;49.894;10.358;2023-01-15T17:46:36;2.63;;;0.90;;
54157;SDS011;40065;49.894;10.358;2023-01-15T17:51:38;4.80;;;1.00;;
54157;SDS011;40065;49.894;10.358;2023-01-15T17:56:41;2.20;;;0.70;;
54157;SDS011;40065;49.894;10.358;2023-01-15T18:02:02;9.65;;;1.40;;
54157;SDS011;40065;49.894;10.358;2023-01-15T18:07:33;5.13;;;1.35;;
54157;SDS011;40065;49.894;10.358;2023-01-15T18:12:40;5.95;;;0.80;;
54157;SDS011;40065;49.894;10.358;2023-01-15T18:17:42;3.95;;;0.90;;
54157;SDS011;40065;49.894;10.358;2023-01-15T18:22:44;2.75;;;0.70;;
54157;SDS011;40065;49.894;10.358;2023-01-15T18:27:46;4.70;;;1.27;;
54157;SDS011;40065;49.894;10.358;2023-01-15T18:32:48;4.25;;;1.00;;
54157;SDS011;40065;49.894;10.358;2023-01-15T18:37:50;2.10;;;0.95;;
54157;SDS011;40065;49.894;10.358;2023-01-15T18:42:52;5.60;;;0.95;;
54157;SDS011;40065;49.894;10.358;2023-01-15T18:48:12;5.47;;;1.10;;
54157;SDS011;40065;49.894;10.358;2023-01-15T18:53:14;12.27;;;1.65;;
54157;SDS011;40065;49.894;10.358;2023-01-15T18:58:16;4.28;;;0.85;;
54157;SDS011;40065;49.894;10.358;2023-01-15T19:03:18;4.13;;;1.30;;
54157;SDS011;40065;49.894;10.358;2023-01-15T19:08:21;2.60;;;0.98;;
54157;SDS011;40065;49.894;10.358;2023-01-15T19:13:23;5.63;;;2.10;;
54157;SDS011;40065;49.894;10.358;2023-01-15T19:18:24;1.25;;;0.80;;
54157;SDS011;40065;49.894;10.358;2023-01-15T19:23:41;9.65;;;1.63;;
54157;SDS011;40065;49.894;10.358;2023-01-15T19:28:43;5.43;;;1.30;;
54157;SDS011;40065;49.894;10.358;2023-01-15T19:33:45;3.33;;;1.15;;
54157;SDS011;40065;49.894;10.358;2023-01-15T19:38:47;4.10;;;1.20;;
54157;SDS011;40065;49.894;10.358;2023-01-15T19:43:48;2.88;;;1.00;;
54157;SDS011;40065;49.894;10.358;2023-01-15T19:49:10;5.35;;;1.38;;
54157;SDS011;40065;49.894;10.358;2023-01-15T19:54:37;7.00;;;1.02;;
54157;SDS011;40065;49.894;10.358;2023-01-15T19:59:58;9.50;;;3.53;;
54157;SDS011;40065;49.894;10.358;2023-01-15T20:04:59;8.00;;;3.08;;
54157;SDS011;40065;49.894;10.358;2023-01-15T20:10:02;5.53;;;2.05;;
54157;SDS011;40065;49.894;10.358;2023-01-15T20:15:09;8.35;;;3.17;;
54157;SDS011;40065;49.894;10.358;2023-01-15T20:20:11;2.10;;;0.90;;
54157;SDS011;40065;49.894;10.358;2023-01-15T20:25:13;6.05;;;2.38;;
54157;SDS011;40065;49.894;10.358;2023-01-15T20:30:16;8.63;;;1.80;;
54157;SDS011;40065;49.894;10.358;2023-01-15T20:35:22;5.03;;;1.00;;
54157;SDS011;40065;49.894;10.358;2023-01-15T20:40:26;4.07;;;0.90;;
54157;SDS011;40065;49.894;10.358;2023-01-15T20:45:28;4.07;;;1.15;;
54157;SDS011;40065;49.894;10.358;2023-01-15T20:50:31;5.93;;;1.42;;
54157;SDS011;40065;49.894;10.358;2023-01-15T20:55:36;2.13;;;0.98;;
54157;SDS011;40065;49.894;10.358;2023-01-15T21:01:01;3.53;;;0.90;;
54157;SDS011;40065;49.894;10.358;2023-01-15T21:06:05;4.32;;;1.05;;
54157;SDS011;40065;49.894;10.358;2023-01-15T21:11:08;3.10;;;0.60;;
54157;SDS011;40065;49.894;10.358;2023-01-15T21:16:10;6.50;;;0.85;;
54157;SDS011;40065;49.894;10.358;2023-01-15T21:21:16;3.50;;;0.90;;
54157;SDS011;40065;49.894;10.358;2023-01-15T21:26:19;5.78;;;1.00;;
54157;SDS011;40065;49.894;10.358;2023-01-15T21:31:21;2.72;;;0.65;;
54157;SDS011;40065;49.894;10.358;2023-01-15T21:36:23;3.42;;;1.23;;
54157;SDS011;40065;49.894;10.358;2023-01-15T21:41:25;4.60;;;0.80;;
54157;SDS011;40065;49.894;10.358;2023-01-15T21:46:45;4.07;;;0.80;;
54157;SDS011;40065;49.894;10.358;2023-01-15T21:51:47;4.95;;;0.95;;
54157;SDS011;40065;49.894;10.358;2023-01-15T21:56:49;2.92;;;0.80;;
54157;SDS011;40065;49.894;10.358;2023-01-15T22:01:51;4.43;;;0.90;;
54157;SDS011;40065;49.894;10.358;2023-01-15T22:06:54;5.07;;;0.80;;
54157;SDS011;40065;49.894;10.358;2023-01-15T22:11:56;2.17;;;0.70;;
54157;SDS011;40065;49.894;10.358;2023-01-15T22:16:59;2.63;;;1.05;;
54157;SDS011;40065;49.894;10.358;2023-01-15T22:22:03;2.85;;;0.80;;
54157;SDS011;40065;49.894;10.358;2023-01-15T22:27:12;5.30;;;1.42;;
54157;SDS011;40065;49.894;10.358;2023-01-15T22:32:16;3.75;;;1.50;;
54157;SDS011;40065;49.894;10.358;2023-01-15T22:37:18;3.72;;;1.00;;
54157;SDS011;40065;49.894;10.358;2023-01-15T22:42:19;4.28;;;0.98;;
54157;SDS011;40065;49.894;10.358;2023-01-15T22:47:24;2.28;;;1.02;;
54157;SDS011;40065;49.894;10.358;2023-01-15T22:52:27;5.97;;;1.05;;
54157;SDS011;40065;49.894;10.358;2023-01-15T22:57:29;4.78;;;1.10;;
54157;SDS011;40065;49.894;10.358;2023-01-15T23:02:31;2.42;;;1.10;;
54157;SDS011;40065;49.894;10.358;2023-01-15T23:07:51;4.80;;;1.35;;
54157;SDS011;40065;49.894;10.358;2023-01-15T23:12:53;5.50;;;1.20;;
54157;SDS011;40065;49.894;10.358;2023-01-15T23:17:55;4.22;;;1.00;;
54157;SDS011;40065;49.894;10.358;2023-01-15T23:22:57;3.33;;;0.90;;
54157;SDS011;40065;49.894;10.358;2023-01-15T23:27:58;2.13;;;0.95;;
54157;SDS011;40065;49.894;10.358;2023-01-15T23:33:00;5.07;;;1.55;;
54157;SDS011;40065;49.894;10.358;2023-01-15T23:38:02;3.28;;;1.05;;
54157;SDS011;40065;49.894;10.358;2023-01-15T23:43:04;4.40;;;0.85;;
54157;SDS011;40065;49.894;10.358;2023-01-15T23:48:24;5.50;;;0.98;;
54157;SDS011;40065;49.894;10.358;2023-01-15T23:53:26;3.85;;;0.90;;
54157;SDS011;40065;49.894;10.358;2023-01-15T23:58:28;5.65;;;1.15;;
